sensor_id;sensor_type;location;lat;lon;timestamp;P1;durP1;ratioP1;P2;durP2;ratioP2
64387;SDS011;50709;52.648;4.764;2023-03-16T00:00:38;8.40;;;5.65;;
64387;SDS011;50709;52.648;4.764;2023-03-16T00:03:04;10.02;;;5.43;;
64387;SDS011;50709;52.648;4.764;2023-03-16T00:05:29;8.02;;;5.40;;
64387;SDS011;50709;52.648;4.764;2023-03-16T00:07:56;7.80;;;5.50;;
64387;SDS011;50709;52.648;4.764;2023-03-16T00:10:21;9.10;;;5.80;;
64387;SDS011;50709;52.648;4.764;2023-03-16T00:12:51;8.57;;;5.70;;
64387;SDS011;50709;52.648;4.764;2023-03-16T00:15:17;8.20;;;5.53;;
64387;SDS011;50709;52.648;4.764;2023-03-16T00:17:43;8.05;;;5.03;;
64387;SDS011;50709;52.648;4.764;2023-03-16T00:20:12;9.90;;;5.63;;
64387;SDS011;50709;52.648;4.764;2023-03-16T00:22:42;8.32;;;6.03;;
64387;SDS011;50709;52.648;4.764;2023-03-16T00:25:08;9.00;;;5.40;;
64387;SDS011;50709;52.648;4.764;2023-03-16T00:27:35;7.45;;;5.30;;
64387;SDS011;50709;52.648;4.764;2023-03-16T00:30:00;8.32;;;6.30;;
64387;SDS011;50709;52.648;4.764;2023-03-16T00:32:28;9.73;;;5.68;;
64387;SDS011;50709;52.648;4.764;2023-03-16T00:34:56;9.48;;;5.32;;
64387;SDS011;50709;52.648;4.764;2023-03-16T00:37:22;9.15;;;5.85;;
64387;SDS011;50709;52.648;4.764;2023-03-16T00:39:49;8.13;;;6.05;;
64387;SDS011;50709;52.648;4.764;2023-03-16T00:42:16;10.25;;;5.93;;
64387;SDS011;50709;52.648;4.764;2023-03-16T00:44:43;9.25;;;5.45;;
64387;SDS011;50709;52.648;4.764;2023-03-16T00:47:09;7.10;;;5.32;;
64387;SDS011;50709;52.648;4.764;2023-03-16T00:49:38;8.38;;;5.28;;
64387;SDS011;50709;52.648;4.764;2023-03-16T00:52:07;9.07;;;5.40;;
64387;SDS011;50709;52.648;4.764;2023-03-16T00:54:33;6.72;;;5.22;;
64387;SDS011;50709;52.648;4.764;2023-03-16T00:56:58;7.28;;;4.78;;
64387;SDS011;50709;52.648;4.764;2023-03-16T00:59:25;9.43;;;5.38;;
64387;SDS011;50709;52.648;4.764;2023-03-16T01:01:51;9.75;;;5.75;;
64387;SDS011;50709;52.648;4.764;2023-03-16T01:04:17;7.25;;;5.40;;
64387;SDS011;50709;52.648;4.764;2023-03-16T01:06:43;9.40;;;5.60;;
64387;SDS011;50709;52.648;4.764;2023-03-16T01:09:09;10.73;;;7.00;;
64387;SDS011;50709;52.648;4.764;2023-03-16T01:11:35;9.27;;;5.55;;
64387;SDS011;50709;52.648;4.764;2023-03-16T01:14:01;8.30;;;5.47;;
64387;SDS011;50709;52.648;4.764;2023-03-16T01:16:26;9.27;;;5.28;;
64387;SDS011;50709;52.648;4.764;2023-03-16T01:18:52;10.48;;;5.72;;
64387;SDS011;50709;52.648;4.764;2023-03-16T01:21:18;9.27;;;5.45;;
64387;SDS011;50709;52.648;4.764;2023-03-16T01:23:45;7.85;;;5.10;;
64387;SDS011;50709;52.648;4.764;2023-03-16T01:26:12;8.07;;;5.95;;
64387;SDS011;50709;52.648;4.764;2023-03-16T01:28:40;9.18;;;5.57;;
64387;SDS011;50709;52.648;4.764;2023-03-16T01:31:07;8.50;;;5.50;;
64387;SDS011;50709;52.648;4.764;2023-03-16T01:33:34;8.75;;;5.45;;
64387;SDS011;50709;52.648;4.764;2023-03-16T01:36:07;8.63;;;5.60;;
64387;SDS011;50709;52.648;4.764;2023-03-16T01:38:38;7.43;;;4.97;;
64387;SDS011;50709;52.648;4.764;2023-03-16T01:41:03;8.18;;;5.13;;
64387;SDS011;50709;52.648;4.764;2023-03-16T01:43:30;8.38;;;5.90;;
64387;SDS011;50709;52.648;4.764;2023-03-16T01:48:28;7.97;;;5.18;;
64387;SDS011;50709;52.648;4.764;2023-03-16T01:51:01;10.20;;;6.05;;
64387;SDS011;50709;52.648;4.764;2023-03-16T01:53:30;9.60;;;6.00;;
64387;SDS011;50709;52.648;4.764;2023-03-16T01:55:57;7.22;;;4.90;;
64387;SDS011;50709;52.648;4.764;2023-03-16T01:58:26;9.13;;;5.40;;
64387;SDS011;50709;52.648;4.764;2023-03-16T02:00:53;8.18;;;5.97;;
64387;SDS011;50709;52.648;4.764;2023-03-16T02:03:18;8.95;;;5.22;;
64387;SDS011;50709;52.648;4.764;2023-03-16T02:08:38;11.30;;;6.53;;
64387;SDS011;50709;52.648;4.764;2023-03-16T02:11:05;8.45;;;5.88;;
64387;SDS011;50709;52.648;4.764;2023-03-16T02:13:32;9.60;;;6.00;;
64387;SDS011;50709;52.648;4.764;2023-03-16T02:16:00;9.00;;;5.88;;
64387;SDS011;50709;52.648;4.764;2023-03-16T02:18:29;7.68;;;5.63;;
64387;SDS011;50709;52.648;4.764;2023-03-16T02:20:56;11.10;;;5.50;;
64387;SDS011;50709;52.648;4.764;2023-03-16T02:23:28;9.57;;;5.75;;
64387;SDS011;50709;52.648;4.764;2023-03-16T02:28:31;7.80;;;5.97;;
64387;SDS011;50709;52.648;4.764;2023-03-16T02:31:02;9.00;;;6.30;;
64387;SDS011;50709;52.648;4.764;2023-03-16T02:33:28;9.20;;;6.00;;
64387;SDS011;50709;52.648;4.764;2023-03-16T02:35:55;12.10;;;6.82;;
64387;SDS011;50709;52.648;4.764;2023-03-16T02:38:21;10.63;;;6.38;;
64387;SDS011;50709;52.648;4.764;2023-03-16T02:40:52;9.60;;;6.15;;
64387;SDS011;50709;52.648;4.764;2023-03-16T02:43:24;11.30;;;7.55;;
64387;SDS011;50709;52.648;4.764;2023-03-16T02:45:57;11.07;;;6.57;;
64387;SDS011;50709;52.648;4.764;2023-03-16T02:48:30;8.40;;;5.70;;
64387;SDS011;50709;52.648;4.764;2023-03-16T02:51:01;9.80;;;6.75;;
64387;SDS011;50709;52.648;4.764;2023-03-16T02:53:26;13.50;;;7.85;;
64387;SDS011;50709;52.648;4.764;2023-03-16T02:55:51;10.57;;;7.35;;
64387;SDS011;50709;52.648;4.764;2023-03-16T02:58:17;10.27;;;6.65;;
64387;SDS011;50709;52.648;4.764;2023-03-16T03:00:43;9.02;;;7.05;;
64387;SDS011;50709;52.648;4.764;2023-03-16T03:03:12;11.05;;;7.50;;
64387;SDS011;50709;52.648;4.764;2023-03-16T03:05:38;13.73;;;8.15;;
64387;SDS011;50709;52.648;4.764;2023-03-16T03:08:04;12.00;;;7.68;;
64387;SDS011;50709;52.648;4.764;2023-03-16T03:10:30;9.48;;;7.00;;
64387;SDS011;50709;52.648;4.764;2023-03-16T03:12:55;11.15;;;6.80;;
64387;SDS011;50709;52.648;4.764;2023-03-16T03:15:21;10.82;;;6.88;;
64387;SDS011;50709;52.648;4.764;2023-03-16T03:17:47;11.57;;;7.43;;
64387;SDS011;50709;52.648;4.764;2023-03-16T03:20:13;14.25;;;6.88;;
64387;SDS011;50709;52.648;4.764;2023-03-16T03:22:41;12.95;;;7.55;;
64387;SDS011;50709;52.648;4.764;2023-03-16T03:25:09;12.32;;;7.30;;
64387;SDS011;50709;52.648;4.764;2023-03-16T03:27:35;11.00;;;8.23;;
64387;SDS011;50709;52.648;4.764;2023-03-16T03:30:01;9.45;;;6.43;;
64387;SDS011;50709;52.648;4.764;2023-03-16T03:32:26;12.40;;;7.32;;
64387;SDS011;50709;52.648;4.764;2023-03-16T03:34:51;12.07;;;7.05;;
64387;SDS011;50709;52.648;4.764;2023-03-16T03:37:17;10.50;;;7.70;;
64387;SDS011;50709;52.648;4.764;2023-03-16T03:39:42;11.27;;;7.07;;
64387;SDS011;50709;52.648;4.764;2023-03-16T03:42:09;11.38;;;7.32;;
64387;SDS011;50709;52.648;4.764;2023-03-16T03:44:35;10.63;;;7.40;;
64387;SDS011;50709;52.648;4.764;2023-03-16T03:47:01;10.23;;;7.43;;
64387;SDS011;50709;52.648;4.764;2023-03-16T03:49:27;10.50;;;7.70;;
64387;SDS011;50709;52.648;4.764;2023-03-16T03:51:53;13.32;;;8.10;;
64387;SDS011;50709;52.648;4.764;2023-03-16T03:54:19;10.98;;;7.65;;
64387;SDS011;50709;52.648;4.764;2023-03-16T03:56:45;12.25;;;7.80;;
64387;SDS011;50709;52.648;4.764;2023-03-16T03:59:10;11.75;;;7.43;;
64387;SDS011;50709;52.648;4.764;2023-03-16T04:01:35;11.88;;;7.22;;
64387;SDS011;50709;52.648;4.764;2023-03-16T04:04:01;11.82;;;7.15;;
64387;SDS011;50709;52.648;4.764;2023-03-16T04:06:26;11.52;;;7.22;;
64387;SDS011;50709;52.648;4.764;2023-03-16T04:08:52;11.63;;;7.32;;
64387;SDS011;50709;52.648;4.764;2023-03-16T04:11:18;10.77;;;7.32;;
64387;SDS011;50709;52.648;4.764;2023-03-16T04:13:44;11.75;;;7.60;;
64387;SDS011;50709;52.648;4.764;2023-03-16T04:16:10;11.65;;;7.97;;
64387;SDS011;50709;52.648;4.764;2023-03-16T04:18:41;14.00;;;7.97;;
64387;SDS011;50709;52.648;4.764;2023-03-16T04:21:07;11.35;;;7.68;;
64387;SDS011;50709;52.648;4.764;2023-03-16T04:23:38;11.65;;;7.22;;
64387;SDS011;50709;52.648;4.764;2023-03-16T04:26:03;10.18;;;6.72;;
64387;SDS011;50709;52.648;4.764;2023-03-16T04:28:29;11.07;;;7.00;;
64387;SDS011;50709;52.648;4.764;2023-03-16T04:31:00;12.57;;;7.00;;
64387;SDS011;50709;52.648;4.764;2023-03-16T04:33:31;11.98;;;7.03;;
64387;SDS011;50709;52.648;4.764;2023-03-16T04:35:57;10.98;;;7.47;;
64387;SDS011;50709;52.648;4.764;2023-03-16T04:38:23;11.95;;;7.10;;
64387;SDS011;50709;52.648;4.764;2023-03-16T04:40:48;12.77;;;7.70;;
64387;SDS011;50709;52.648;4.764;2023-03-16T04:43:13;11.88;;;7.15;;
64387;SDS011;50709;52.648;4.764;2023-03-16T04:45:39;12.25;;;7.90;;
64387;SDS011;50709;52.648;4.764;2023-03-16T04:48:05;11.77;;;7.05;;
64387;SDS011;50709;52.648;4.764;2023-03-16T04:50:30;11.73;;;7.38;;
64387;SDS011;50709;52.648;4.764;2023-03-16T04:52:56;12.27;;;7.18;;
64387;SDS011;50709;52.648;4.764;2023-03-16T04:55:21;11.35;;;7.45;;
64387;SDS011;50709;52.648;4.764;2023-03-16T04:57:47;10.13;;;6.60;;
64387;SDS011;50709;52.648;4.764;2023-03-16T05:00:12;11.23;;;7.47;;
64387;SDS011;50709;52.648;4.764;2023-03-16T05:02:48;11.67;;;6.33;;
64387;SDS011;50709;52.648;4.764;2023-03-16T05:05:15;12.25;;;6.72;;
64387;SDS011;50709;52.648;4.764;2023-03-16T05:07:41;10.15;;;6.70;;
64387;SDS011;50709;52.648;4.764;2023-03-16T05:10:07;11.65;;;6.78;;
64387;SDS011;50709;52.648;4.764;2023-03-16T05:12:34;12.15;;;7.22;;
64387;SDS011;50709;52.648;4.764;2023-03-16T05:14:59;12.80;;;7.78;;
64387;SDS011;50709;52.648;4.764;2023-03-16T05:17:25;13.90;;;7.13;;
64387;SDS011;50709;52.648;4.764;2023-03-16T05:19:50;11.38;;;7.22;;
64387;SDS011;50709;52.648;4.764;2023-03-16T05:22:15;12.60;;;7.63;;
64387;SDS011;50709;52.648;4.764;2023-03-16T05:24:41;14.75;;;7.30;;
64387;SDS011;50709;52.648;4.764;2023-03-16T05:27:06;11.13;;;6.30;;
64387;SDS011;50709;52.648;4.764;2023-03-16T05:29:32;11.55;;;6.78;;
64387;SDS011;50709;52.648;4.764;2023-03-16T05:31:58;10.15;;;6.03;;
64387;SDS011;50709;52.648;4.764;2023-03-16T05:34:24;10.65;;;6.25;;
64387;SDS011;50709;52.648;4.764;2023-03-16T05:36:49;7.97;;;5.80;;
64387;SDS011;50709;52.648;4.764;2023-03-16T05:39:15;10.02;;;6.10;;
64387;SDS011;50709;52.648;4.764;2023-03-16T05:41:40;10.65;;;5.82;;
64387;SDS011;50709;52.648;4.764;2023-03-16T05:44:06;10.85;;;6.40;;
64387;SDS011;50709;52.648;4.764;2023-03-16T05:46:32;8.18;;;6.10;;
64387;SDS011;50709;52.648;4.764;2023-03-16T05:48:58;11.10;;;5.95;;
64387;SDS011;50709;52.648;4.764;2023-03-16T05:51:23;8.85;;;5.70;;
64387;SDS011;50709;52.648;4.764;2023-03-16T05:53:50;8.38;;;5.65;;
64387;SDS011;50709;52.648;4.764;2023-03-16T05:56:20;7.43;;;5.32;;
64387;SDS011;50709;52.648;4.764;2023-03-16T05:58:48;11.65;;;5.28;;
64387;SDS011;50709;52.648;4.764;2023-03-16T06:01:14;9.82;;;5.93;;
64387;SDS011;50709;52.648;4.764;2023-03-16T06:03:39;8.23;;;4.93;;
64387;SDS011;50709;52.648;4.764;2023-03-16T06:06:05;9.48;;;5.30;;
64387;SDS011;50709;52.648;4.764;2023-03-16T06:08:31;9.98;;;5.43;;
64387;SDS011;50709;52.648;4.764;2023-03-16T06:10:56;9.73;;;5.85;;
64387;SDS011;50709;52.648;4.764;2023-03-16T06:13:21;9.15;;;5.10;;
64387;SDS011;50709;52.648;4.764;2023-03-16T06:15:48;11.15;;;7.68;;
64387;SDS011;50709;52.648;4.764;2023-03-16T06:18:13;7.55;;;4.70;;
64387;SDS011;50709;52.648;4.764;2023-03-16T06:20:39;8.57;;;4.80;;
64387;SDS011;50709;52.648;4.764;2023-03-16T06:23:04;7.03;;;4.63;;
64387;SDS011;50709;52.648;4.764;2023-03-16T06:25:29;6.97;;;4.80;;
64387;SDS011;50709;52.648;4.764;2023-03-16T06:27:55;7.63;;;5.30;;
64387;SDS011;50709;52.648;4.764;2023-03-16T06:30:20;10.77;;;6.25;;
64387;SDS011;50709;52.648;4.764;2023-03-16T06:32:45;9.30;;;5.00;;
64387;SDS011;50709;52.648;4.764;2023-03-16T06:35:11;7.82;;;4.65;;
64387;SDS011;50709;52.648;4.764;2023-03-16T06:37:37;9.10;;;5.63;;
64387;SDS011;50709;52.648;4.764;2023-03-16T06:40:03;7.53;;;5.07;;
64387;SDS011;50709;52.648;4.764;2023-03-16T06:42:29;9.20;;;4.43;;
64387;SDS011;50709;52.648;4.764;2023-03-16T06:44:54;8.23;;;4.38;;
64387;SDS011;50709;52.648;4.764;2023-03-16T06:47:20;10.13;;;4.25;;
64387;SDS011;50709;52.648;4.764;2023-03-16T06:49:46;7.35;;;4.60;;
64387;SDS011;50709;52.648;4.764;2023-03-16T06:52:12;7.68;;;3.78;;
64387;SDS011;50709;52.648;4.764;2023-03-16T06:54:38;5.95;;;4.18;;
64387;SDS011;50709;52.648;4.764;2023-03-16T06:57:04;5.88;;;4.00;;
64387;SDS011;50709;52.648;4.764;2023-03-16T06:59:29;6.10;;;4.43;;
64387;SDS011;50709;52.648;4.764;2023-03-16T07:01:55;8.32;;;4.18;;
64387;SDS011;50709;52.648;4.764;2023-03-16T07:04:21;7.07;;;4.30;;
64387;SDS011;50709;52.648;4.764;2023-03-16T07:06:46;7.97;;;4.43;;
64387;SDS011;50709;52.648;4.764;2023-03-16T07:09:11;6.30;;;3.80;;
64387;SDS011;50709;52.648;4.764;2023-03-16T07:11:37;7.93;;;4.70;;
64387;SDS011;50709;52.648;4.764;2023-03-16T07:14:03;7.10;;;3.90;;
64387;SDS011;50709;52.648;4.764;2023-03-16T07:16:29;6.07;;;4.35;;
64387;SDS011;50709;52.648;4.764;2023-03-16T07:18:54;8.05;;;5.30;;
64387;SDS011;50709;52.648;4.764;2023-03-16T07:21:20;7.63;;;4.70;;
64387;SDS011;50709;52.648;4.764;2023-03-16T07:23:45;7.43;;;4.82;;
64387;SDS011;50709;52.648;4.764;2023-03-16T07:26:11;7.10;;;4.78;;
64387;SDS011;50709;52.648;4.764;2023-03-16T07:28:37;7.93;;;5.45;;
64387;SDS011;50709;52.648;4.764;2023-03-16T07:31:03;6.35;;;3.70;;
64387;SDS011;50709;52.648;4.764;2023-03-16T07:33:29;6.25;;;3.92;;
64387;SDS011;50709;52.648;4.764;2023-03-16T07:35:56;6.47;;;4.13;;
64387;SDS011;50709;52.648;4.764;2023-03-16T07:38:21;8.57;;;4.38;;
64387;SDS011;50709;52.648;4.764;2023-03-16T07:40:47;6.18;;;3.97;;
64387;SDS011;50709;52.648;4.764;2023-03-16T07:43:13;7.38;;;3.90;;
64387;SDS011;50709;52.648;4.764;2023-03-16T07:45:39;7.43;;;4.65;;
64387;SDS011;50709;52.648;4.764;2023-03-16T07:48:04;7.15;;;3.92;;
64387;SDS011;50709;52.648;4.764;2023-03-16T07:50:29;6.40;;;4.20;;
64387;SDS011;50709;52.648;4.764;2023-03-16T07:52:55;6.20;;;3.70;;
64387;SDS011;50709;52.648;4.764;2023-03-16T07:55:20;9.20;;;4.60;;
64387;SDS011;50709;52.648;4.764;2023-03-16T07:57:46;6.80;;;4.20;;
64387;SDS011;50709;52.648;4.764;2023-03-16T08:00:12;7.90;;;4.00;;
64387;SDS011;50709;52.648;4.764;2023-03-16T08:02:38;6.72;;;4.20;;
64387;SDS011;50709;52.648;4.764;2023-03-16T08:05:04;8.00;;;4.05;;
64387;SDS011;50709;52.648;4.764;2023-03-16T08:07:30;7.13;;;4.22;;
64387;SDS011;50709;52.648;4.764;2023-03-16T08:09:56;7.00;;;4.60;;
64387;SDS011;50709;52.648;4.764;2023-03-16T08:12:21;8.55;;;4.90;;
64387;SDS011;50709;52.648;4.764;2023-03-16T08:14:46;10.10;;;6.00;;
64387;SDS011;50709;52.648;4.764;2023-03-16T08:17:12;10.48;;;4.50;;
64387;SDS011;50709;52.648;4.764;2023-03-16T08:19:38;6.40;;;4.32;;
64387;SDS011;50709;52.648;4.764;2023-03-16T08:22:04;7.85;;;4.68;;
64387;SDS011;50709;52.648;4.764;2023-03-16T08:24:30;8.60;;;4.47;;
64387;SDS011;50709;52.648;4.764;2023-03-16T08:26:56;8.02;;;4.10;;
64387;SDS011;50709;52.648;4.764;2023-03-16T08:29:23;7.20;;;4.50;;
64387;SDS011;50709;52.648;4.764;2023-03-16T08:31:49;5.55;;;3.60;;
64387;SDS011;50709;52.648;4.764;2023-03-16T08:34:15;7.60;;;4.22;;
64387;SDS011;50709;52.648;4.764;2023-03-16T08:36:41;5.75;;;3.97;;
64387;SDS011;50709;52.648;4.764;2023-03-16T08:39:07;7.38;;;4.60;;
64387;SDS011;50709;52.648;4.764;2023-03-16T08:41:34;8.95;;;5.85;;
64387;SDS011;50709;52.648;4.764;2023-03-16T08:43:59;8.10;;;4.03;;
64387;SDS011;50709;52.648;4.764;2023-03-16T08:46:25;8.55;;;4.00;;
64387;SDS011;50709;52.648;4.764;2023-03-16T08:48:51;6.40;;;3.90;;
64387;SDS011;50709;52.648;4.764;2023-03-16T08:51:16;6.22;;;3.45;;
64387;SDS011;50709;52.648;4.764;2023-03-16T08:53:43;6.85;;;3.85;;
64387;SDS011;50709;52.648;4.764;2023-03-16T08:56:10;6.13;;;3.88;;
64387;SDS011;50709;52.648;4.764;2023-03-16T08:58:37;6.47;;;3.80;;
64387;SDS011;50709;52.648;4.764;2023-03-16T09:01:03;7.20;;;3.80;;
64387;SDS011;50709;52.648;4.764;2023-03-16T09:03:33;5.35;;;3.42;;
64387;SDS011;50709;52.648;4.764;2023-03-16T09:06:00;6.95;;;4.18;;
64387;SDS011;50709;52.648;4.764;2023-03-16T09:08:27;6.13;;;4.25;;
64387;SDS011;50709;52.648;4.764;2023-03-16T09:10:59;6.75;;;4.25;;
64387;SDS011;50709;52.648;4.764;2023-03-16T09:13:26;7.97;;;4.15;;
64387;SDS011;50709;52.648;4.764;2023-03-16T09:15:52;5.90;;;3.92;;
64387;SDS011;50709;52.648;4.764;2023-03-16T09:18:18;6.25;;;4.20;;
64387;SDS011;50709;52.648;4.764;2023-03-16T09:20:44;9.07;;;4.05;;
64387;SDS011;50709;52.648;4.764;2023-03-16T09:23:11;7.28;;;4.38;;
64387;SDS011;50709;52.648;4.764;2023-03-16T09:25:38;6.60;;;3.97;;
64387;SDS011;50709;52.648;4.764;2023-03-16T09:28:03;10.30;;;4.18;;
64387;SDS011;50709;52.648;4.764;2023-03-16T09:30:29;11.88;;;5.03;;
64387;SDS011;50709;52.648;4.764;2023-03-16T09:32:54;10.27;;;5.43;;
64387;SDS011;50709;52.648;4.764;2023-03-16T09:35:20;9.98;;;4.50;;
64387;SDS011;50709;52.648;4.764;2023-03-16T09:37:45;7.93;;;4.22;;
64387;SDS011;50709;52.648;4.764;2023-03-16T09:40:18;10.65;;;4.68;;
64387;SDS011;50709;52.648;4.764;2023-03-16T09:50:38;8.00;;;4.30;;
64387;SDS011;50709;52.648;4.764;2023-03-16T09:55:52;8.65;;;4.22;;
64387;SDS011;50709;52.648;4.764;2023-03-16T09:58:22;10.13;;;4.47;;
64387;SDS011;50709;52.648;4.764;2023-03-16T10:06:15;9.00;;;4.20;;
64387;SDS011;50709;52.648;4.764;2023-03-16T10:11:46;8.27;;;4.35;;
64387;SDS011;50709;52.648;4.764;2023-03-16T10:14:28;7.28;;;4.00;;
64387;SDS011;50709;52.648;4.764;2023-03-16T10:16:56;7.15;;;4.32;;
64387;SDS011;50709;52.648;4.764;2023-03-16T10:22:18;7.93;;;4.50;;
64387;SDS011;50709;52.648;4.764;2023-03-16T10:27:15;6.95;;;4.00;;
64387;SDS011;50709;52.648;4.764;2023-03-16T10:29:46;8.20;;;4.55;;
64387;SDS011;50709;52.648;4.764;2023-03-16T10:32:13;7.22;;;4.57;;
64387;SDS011;50709;52.648;4.764;2023-03-16T10:34:44;7.53;;;4.63;;
64387;SDS011;50709;52.648;4.764;2023-03-16T10:37:16;9.07;;;4.50;;
64387;SDS011;50709;52.648;4.764;2023-03-16T10:39:42;10.40;;;4.20;;
64387;SDS011;50709;52.648;4.764;2023-03-16T10:42:14;11.60;;;4.32;;
64387;SDS011;50709;52.648;4.764;2023-03-16T10:44:41;7.90;;;4.55;;
64387;SDS011;50709;52.648;4.764;2023-03-16T10:47:14;8.95;;;4.57;;
64387;SDS011;50709;52.648;4.764;2023-03-16T10:49:46;7.32;;;3.75;;
64387;SDS011;50709;52.648;4.764;2023-03-16T10:52:19;7.75;;;4.25;;
64387;SDS011;50709;52.648;4.764;2023-03-16T10:55:11;7.90;;;4.70;;
64387;SDS011;50709;52.648;4.764;2023-03-16T10:57:42;9.18;;;4.18;;
64387;SDS011;50709;52.648;4.764;2023-03-16T11:00:15;7.10;;;3.38;;
64387;SDS011;50709;52.648;4.764;2023-03-16T11:02:49;8.50;;;4.43;;
64387;SDS011;50709;52.648;4.764;2023-03-16T11:07:48;10.55;;;4.80;;
64387;SDS011;50709;52.648;4.764;2023-03-16T11:10:23;7.05;;;4.10;;
64387;SDS011;50709;52.648;4.764;2023-03-16T11:12:50;11.35;;;4.47;;
64387;SDS011;50709;52.648;4.764;2023-03-16T11:15:16;8.35;;;4.60;;
64387;SDS011;50709;52.648;4.764;2023-03-16T11:17:43;7.88;;;4.03;;
64387;SDS011;50709;52.648;4.764;2023-03-16T11:20:15;9.63;;;4.85;;
64387;SDS011;50709;52.648;4.764;2023-03-16T11:22:43;10.35;;;4.60;;
64387;SDS011;50709;52.648;4.764;2023-03-16T11:28:10;8.38;;;3.97;;
64387;SDS011;50709;52.648;4.764;2023-03-16T11:30:52;9.20;;;4.25;;
64387;SDS011;50709;52.648;4.764;2023-03-16T11:33:26;9.43;;;5.22;;
64387;SDS011;50709;52.648;4.764;2023-03-16T12:01:19;8.05;;;3.72;;
64387;SDS011;50709;52.648;4.764;2023-03-16T12:11:58;9.70;;;4.55;;
64387;SDS011;50709;52.648;4.764;2023-03-16T12:14:33;10.20;;;3.95;;
64387;SDS011;50709;52.648;4.764;2023-03-16T12:22:14;7.22;;;3.63;;
64387;SDS011;50709;52.648;4.764;2023-03-16T12:24:44;7.88;;;3.55;;
64387;SDS011;50709;52.648;4.764;2023-03-16T12:27:15;8.38;;;3.50;;
64387;SDS011;50709;52.648;4.764;2023-03-16T12:32:44;8.80;;;4.10;;
64387;SDS011;50709;52.648;4.764;2023-03-16T12:35:31;8.70;;;3.63;;
64387;SDS011;50709;52.648;4.764;2023-03-16T12:46:07;6.85;;;3.38;;
64387;SDS011;50709;52.648;4.764;2023-03-16T12:48:48;7.20;;;4.10;;
64387;SDS011;50709;52.648;4.764;2023-03-16T12:51:17;5.93;;;3.20;;
64387;SDS011;50709;52.648;4.764;2023-03-16T12:56:09;9.15;;;3.45;;
64387;SDS011;50709;52.648;4.764;2023-03-16T12:58:46;7.53;;;3.30;;
64387;SDS011;50709;52.648;4.764;2023-03-16T13:01:14;9.18;;;3.40;;
64387;SDS011;50709;52.648;4.764;2023-03-16T13:03:42;9.35;;;3.72;;
64387;SDS011;50709;52.648;4.764;2023-03-16T13:06:20;6.72;;;3.60;;
64387;SDS011;50709;52.648;4.764;2023-03-16T13:08:49;8.07;;;3.63;;
64387;SDS011;50709;52.648;4.764;2023-03-16T13:13:47;6.80;;;3.25;;
64387;SDS011;50709;52.648;4.764;2023-03-16T13:16:36;7.85;;;3.22;;
64387;SDS011;50709;52.648;4.764;2023-03-16T13:22:17;6.25;;;3.50;;
64387;SDS011;50709;52.648;4.764;2023-03-16T13:24:58;5.97;;;3.42;;
64387;SDS011;50709;52.648;4.764;2023-03-16T13:27:25;7.03;;;3.85;;
64387;SDS011;50709;52.648;4.764;2023-03-16T13:29:54;8.60;;;3.70;;
64387;SDS011;50709;52.648;4.764;2023-03-16T13:32:22;5.72;;;3.00;;
64387;SDS011;50709;52.648;4.764;2023-03-16T13:34:52;7.35;;;3.30;;
64387;SDS011;50709;52.648;4.764;2023-03-16T13:37:22;7.25;;;3.88;;
64387;SDS011;50709;52.648;4.764;2023-03-16T13:40:30;5.18;;;2.90;;
64387;SDS011;50709;52.648;4.764;2023-03-16T13:42:51;6.83;;;3.43;;
64387;SDS011;50709;52.648;4.764;2023-03-16T13:45:20;6.78;;;3.28;;
64387;SDS011;50709;52.648;4.764;2023-03-16T13:47:48;6.55;;;3.28;;
64387;SDS011;50709;52.648;4.764;2023-03-16T13:50:15;6.25;;;3.45;;
64387;SDS011;50709;52.648;4.764;2023-03-16T13:52:42;6.82;;;3.13;;
64387;SDS011;50709;52.648;4.764;2023-03-16T13:55:17;6.88;;;3.17;;
64387;SDS011;50709;52.648;4.764;2023-03-16T13:57:50;5.90;;;3.22;;
64387;SDS011;50709;52.648;4.764;2023-03-16T14:02:44;6.82;;;3.20;;
64387;SDS011;50709;52.648;4.764;2023-03-16T14:05:16;7.90;;;2.85;;
64387;SDS011;50709;52.648;4.764;2023-03-16T14:07:46;4.78;;;2.95;;
64387;SDS011;50709;52.648;4.764;2023-03-16T14:10:12;7.00;;;3.05;;
64387;SDS011;50709;52.648;4.764;2023-03-16T14:12:57;8.85;;;3.28;;
64387;SDS011;50709;52.648;4.764;2023-03-16T14:15:32;5.57;;;2.80;;
64387;SDS011;50709;52.648;4.764;2023-03-16T14:18:07;5.97;;;3.03;;
64387;SDS011;50709;52.648;4.764;2023-03-16T14:20:38;6.25;;;3.28;;
64387;SDS011;50709;52.648;4.764;2023-03-16T14:23:04;6.65;;;3.15;;
64387;SDS011;50709;52.648;4.764;2023-03-16T14:25:30;10.27;;;3.40;;
64387;SDS011;50709;52.648;4.764;2023-03-16T14:30:26;6.63;;;2.85;;
64387;SDS011;50709;52.648;4.764;2023-03-16T14:32:58;7.82;;;3.40;;
64387;SDS011;50709;52.648;4.764;2023-03-16T14:35:29;7.32;;;3.13;;
64387;SDS011;50709;52.648;4.764;2023-03-16T14:37:56;7.03;;;3.30;;
64387;SDS011;50709;52.648;4.764;2023-03-16T14:40:26;6.25;;;3.33;;
64387;SDS011;50709;52.648;4.764;2023-03-16T14:42:54;4.80;;;2.65;;
64387;SDS011;50709;52.648;4.764;2023-03-16T14:45:27;7.47;;;3.33;;
64387;SDS011;50709;52.648;4.764;2023-03-16T14:47:59;8.10;;;3.17;;
64387;SDS011;50709;52.648;4.764;2023-03-16T14:52:56;5.78;;;2.38;;
64387;SDS011;50709;52.648;4.764;2023-03-16T14:55:21;3.70;;;2.50;;
64387;SDS011;50709;52.648;4.764;2023-03-16T14:57:48;7.00;;;3.15;;
64387;SDS011;50709;52.648;4.764;2023-03-16T15:00:16;5.57;;;2.78;;
64387;SDS011;50709;52.648;4.764;2023-03-16T15:02:43;6.38;;;2.40;;
64387;SDS011;50709;52.648;4.764;2023-03-16T15:05:21;7.25;;;2.97;;
64387;SDS011;50709;52.648;4.764;2023-03-16T15:07:52;5.57;;;2.75;;
64387;SDS011;50709;52.648;4.764;2023-03-16T15:12:53;6.97;;;2.45;;
64387;SDS011;50709;52.648;4.764;2023-03-16T15:15:21;5.43;;;2.53;;
64387;SDS011;50709;52.648;4.764;2023-03-16T15:17:48;4.80;;;2.30;;
64387;SDS011;50709;52.648;4.764;2023-03-16T15:20:17;6.57;;;2.30;;
64387;SDS011;50709;52.648;4.764;2023-03-16T15:22:50;5.05;;;2.40;;
64387;SDS011;50709;52.648;4.764;2023-03-16T15:27:43;7.97;;;2.88;;
64387;SDS011;50709;52.648;4.764;2023-03-16T15:30:29;3.65;;;2.00;;
64387;SDS011;50709;52.648;4.764;2023-03-16T15:32:55;5.20;;;2.10;;
64387;SDS011;50709;52.648;4.764;2023-03-16T15:35:20;4.05;;;2.05;;
64387;SDS011;50709;52.648;4.764;2023-03-16T15:37:46;4.65;;;2.00;;
64387;SDS011;50709;52.648;4.764;2023-03-16T15:42:42;4.13;;;2.08;;
64387;SDS011;50709;52.648;4.764;2023-03-16T15:45:10;4.20;;;2.20;;
64387;SDS011;50709;52.648;4.764;2023-03-16T15:47:41;4.55;;;2.30;;
64387;SDS011;50709;52.648;4.764;2023-03-16T15:50:10;4.85;;;1.98;;
64387;SDS011;50709;52.648;4.764;2023-03-16T15:52:39;4.90;;;2.58;;
64387;SDS011;50709;52.648;4.764;2023-03-16T15:55:14;6.45;;;2.35;;
64387;SDS011;50709;52.648;4.764;2023-03-16T15:57:43;4.40;;;2.42;;
64387;SDS011;50709;52.648;4.764;2023-03-16T16:00:29;5.13;;;2.42;;
64387;SDS011;50709;52.648;4.764;2023-03-16T16:02:57;2.40;;;1.90;;
64387;SDS011;50709;52.648;4.764;2023-03-16T16:05:24;5.22;;;2.20;;
64387;SDS011;50709;52.648;4.764;2023-03-16T16:07:50;5.65;;;2.20;;
64387;SDS011;50709;52.648;4.764;2023-03-16T16:10:17;5.80;;;2.40;;
64387;SDS011;50709;52.648;4.764;2023-03-16T16:12:43;5.13;;;2.15;;
64387;SDS011;50709;52.648;4.764;2023-03-16T16:15:28;5.10;;;2.42;;
64387;SDS011;50709;52.648;4.764;2023-03-16T16:17:57;5.83;;;2.17;;
64387;SDS011;50709;52.648;4.764;2023-03-16T16:20:25;3.45;;;2.30;;
64387;SDS011;50709;52.648;4.764;2023-03-16T16:22:53;4.75;;;2.33;;
64387;SDS011;50709;52.648;4.764;2023-03-16T16:25:24;8.13;;;2.35;;
64387;SDS011;50709;52.648;4.764;2023-03-16T16:27:52;4.20;;;2.13;;
64387;SDS011;50709;52.648;4.764;2023-03-16T16:30:25;5.50;;;2.47;;
64387;SDS011;50709;52.648;4.764;2023-03-16T16:32:52;4.97;;;2.30;;
64387;SDS011;50709;52.648;4.764;2023-03-16T16:35:22;3.72;;;2.13;;
64387;SDS011;50709;52.648;4.764;2023-03-16T16:37:50;4.80;;;2.20;;